KFKL/FKL METAR and TAF weather

Enter ICAO airport designator
Station Type Date Time Source
KFKL METAR 2020/01/18 12:56 UTC NOAA

KFKL 181256Z AUTO 12013G18KT 4SM -SN BR FEW011 BKN034 OVC047 M05/M06 A3015 RMK AO2 UPE1158SNB1158 PRESFR SLP235 P0000 T10501061 FZRANO


Station Type Date Time Source
KFKL Decoded METAR 2020/01/18 12:56 UTC NOAA

Franklin, Venango Regional Airport, PA, United States (KFKL) 41-23N 079-52W
Jan 18, 2020 - 07:56 AM EST / 2020.01.18 1256 UTC
Wind: from the ESE (120 degrees) at 15 MPH (13 KT) gusting to 21 MPH (18 KT):0
Visibility: 4 mile(s):0
Sky conditions: overcast
Weather: light snow; mist
Precipitation last hour: A trace
Temperature: 23.0 F (-5.0 C)
Windchill: 10 F (-12 C):1
Dew Point: 21.0 F (-6.1 C)
Relative Humidity: 91%
Pressure (altimeter): 30.15 in. Hg (1020 hPa)
Pressure tendency: falling rapidly
ob: KFKL 181256Z AUTO 12013G18KT 4SM -SN BR FEW011 BKN034 OVC047 M05/M06 A3015 RMK AO2 UPE1158SNB1158 PRESFR SLP235 P0000 T10501061 FZRANO
cycle: 13

Station Type Date Time Source
KFKL TAF 2020/01/18 12:22 UTC NOAA

TAF KFKL 181120Z 1812/1912 11012KT 1SM -SN OVC008
FM181600 15015G25KT 1SM -FZRASN OVC008
FM182000 19015G25KT 2SM -RA OVC007
FM190100 23015G25KT 5SM -SHRA OVC010
FM190400 26015G25KT 5SM -SHSN OVC010

Example: see airport list